<?xml version="1.0" encoding="UTF-8" standalone="no" ?><gpx xmlns="http://www.topografix.com/GPX/1/1" xmlns:gpxx="http://www.garmin.com/xmlschemas/GpxExtensions/v3" xmlns:wptx1="http://www.garmin.com/xmlschemas/WaypointExtension/v1" xmlns:gpxtpx="http://www.garmin.com/xmlschemas/TrackPointExtension/v1" creator="GuideVTT.com" version="1.1" xmlns:xsi="http://www.w3.org/2001/XMLSchema-instance" xsi:schemaLocation="http://www.topografix.com/GPX/1/1 http://www.topografix.com/GPX/1/1/gpx.xsd http://www.garmin.com/xmlschemas/GpxExtensions/v3 http://www8.garmin.com/xmlschemas/GpxExtensionsv3.xsd http://www.garmin.com/xmlschemas/WaypointExtension/v1 http://www8.garmin.com/xmlschemas/WaypointExtensionv1.xsd http://www.garmin.com/xmlschemas/TrackPointExtension/v1 http://www.garmin.com/xmlschemas/TrackPointExtensionv1.xsd">
<metadata><link href="http://www.garmin.com"><text>Garmin International</text></link><time>2013-06-22T15:13:50Z</time></metadata>
<trk><name>delemont-rangiers.gpx</name><extensions><gpxx:TrackExtension><gpxx:DisplayColor>Cyan</gpxx:DisplayColor></gpxx:TrackExtension></extensions><trkseg>
<trkpt lat="47.36236100" lon="7.34869480"><ele>438.498535</ele><time>2007-07-14T12:49:06Z</time></trkpt>
<trkpt lat="47.36291890" lon="7.34852310"><ele>452.437622</ele><time>2007-07-14T12:51:06Z</time></trkpt>
<trkpt lat="47.36300470" lon="7.34740730"><ele>447.150269</ele><time>2007-07-14T12:51:28Z</time></trkpt>
<trkpt lat="47.36360550" lon="7.34723570"><ele>446.189087</ele><time>2007-07-14T12:51:52Z</time></trkpt>
<trkpt lat="47.36375570" lon="7.34699960"><ele>445.227661</ele><time>2007-07-14T12:52:00Z</time></trkpt>
<trkpt lat="47.36397030" lon="7.34648470"><ele>444.74707</ele><time>2007-07-14T12:52:11Z</time></trkpt>
<trkpt lat="47.36414190" lon="7.34536890"><ele>444.266479</ele><time>2007-07-14T12:52:29Z</time></trkpt>
<trkpt lat="47.36457110" lon="7.34489680"><ele>444.266479</ele><time>2007-07-14T12:52:47Z</time></trkpt>
<trkpt lat="47.36508610" lon="7.34468220"><ele>446.669678</ele><time>2007-07-14T12:53:24Z</time></trkpt>
<trkpt lat="47.36523630" lon="7.34371660"><ele>444.74707</ele><time>2007-07-14T12:54:16Z</time></trkpt>
<trkpt lat="47.36461400" lon="7.34223600"><ele>444.74707</ele><time>2007-07-14T12:55:16Z</time></trkpt>
<trkpt lat="47.36527920" lon="7.34169960"><ele>447.150269</ele><time>2007-07-14T12:56:00Z</time></trkpt>
<trkpt lat="47.36502170" lon="7.34086280"><ele>448.592407</ele><time>2007-07-14T12:56:32Z</time></trkpt>
<trkpt lat="47.36540790" lon="7.34021900"><ele>452.918213</ele><time>2007-07-14T12:56:57Z</time></trkpt>
<trkpt lat="47.36609460" lon="7.33966110"><ele>453.398926</ele><time>2007-07-14T12:57:32Z</time></trkpt>
<trkpt lat="47.36667390" lon="7.33884570"><ele>460.128174</ele><time>2007-07-14T12:58:07Z</time></trkpt>
<trkpt lat="47.36740350" lon="7.33863120"><ele>461.57019</ele><time>2007-07-14T12:58:39Z</time></trkpt>
<trkpt lat="47.36860510" lon="7.33785870"><ele>469.741333</ele><time>2007-07-14T12:59:37Z</time></trkpt>
<trkpt lat="47.36864810" lon="7.33770850"><ele>470.221924</ele><time>2007-07-14T12:59:44Z</time></trkpt>
<trkpt lat="47.36841200" lon="7.33770850"><ele>471.18335</ele><time>2007-07-14T13:01:29Z</time></trkpt>
<trkpt lat="47.36824040" lon="7.33730080"><ele>470.221924</ele><time>2007-07-14T13:01:42Z</time></trkpt>
<trkpt lat="47.36845490" lon="7.33708620"><ele>470.221924</ele><time>2007-07-14T13:01:55Z</time></trkpt>
<trkpt lat="47.36832620" lon="7.33554120"><ele>471.18335</ele><time>2007-07-14T13:02:44Z</time></trkpt>
<trkpt lat="47.36944200" lon="7.33509060"><ele>480.796631</ele><time>2007-07-14T13:04:08Z</time></trkpt>
<trkpt lat="47.36907720" lon="7.33414650"><ele>482.238525</ele><time>2007-07-14T13:04:58Z</time></trkpt>
<trkpt lat="47.36899140" lon="7.33330970"><ele>480.315918</ele><time>2007-07-14T13:08:16Z</time></trkpt>
<trkpt lat="47.36999990" lon="7.33266590"><ele>488.967773</ele><time>2007-07-14T13:09:23Z</time></trkpt>
<trkpt lat="47.37036470" lon="7.33281610"><ele>495.216187</ele><time>2007-07-14T13:10:57Z</time></trkpt>
<trkpt lat="47.37128730" lon="7.33210800"><ele>506.752075</ele><time>2007-07-14T13:12:06Z</time></trkpt>
<trkpt lat="47.37167360" lon="7.33227970"><ele>508.674683</ele><time>2007-07-14T13:12:36Z</time></trkpt>
<trkpt lat="47.37223150" lon="7.33176470"><ele>505.790894</ele><time>2007-07-14T13:13:04Z</time></trkpt>
<trkpt lat="47.37240310" lon="7.33202220"><ele>505.790894</ele><time>2007-07-14T13:13:14Z</time></trkpt>
<trkpt lat="47.37263920" lon="7.33307360"><ele>509.636108</ele><time>2007-07-14T13:13:43Z</time></trkpt>
<trkpt lat="47.37233880" lon="7.33472590"><ele>505.310181</ele><time>2007-07-14T13:14:18Z</time></trkpt>
<trkpt lat="47.37242460" lon="7.33740810"><ele>510.116699</ele><time>2007-07-14T13:15:15Z</time></trkpt>
<trkpt lat="47.37293960" lon="7.33985420"><ele>509.155396</ele><time>2007-07-14T13:16:16Z</time></trkpt>
<trkpt lat="47.37356190" lon="7.33976840"><ele>512.52002</ele><time>2007-07-14T13:16:50Z</time></trkpt>
<trkpt lat="47.37459180" lon="7.33903880"><ele>512.039429</ele><time>2007-07-14T13:17:45Z</time></trkpt>
<trkpt lat="47.37555740" lon="7.33725790"><ele>513.481445</ele><time>2007-07-14T13:19:23Z</time></trkpt>
<trkpt lat="47.37620120" lon="7.33536960"><ele>535.110962</ele><time>2007-07-14T13:20:52Z</time></trkpt>
<trkpt lat="47.37729550" lon="7.33444690"><ele>548.569336</ele><time>2007-07-14T13:22:28Z</time></trkpt>
<trkpt lat="47.37710240" lon="7.33448980"><ele>557.702148</ele><time>2007-07-14T13:25:08Z</time></trkpt>
<trkpt lat="47.37699510" lon="7.32957600"><ele>561.547363</ele><time>2007-07-14T13:26:42Z</time></trkpt>
<trkpt lat="47.37620120" lon="7.32045650"><ele>560.585938</ele><time>2007-07-14T13:29:48Z</time></trkpt>
<trkpt lat="47.37523560" lon="7.31758120"><ele>567.315186</ele><time>2007-07-14T13:31:01Z</time></trkpt>
<trkpt lat="47.37472060" lon="7.31552120"><ele>570.198975</ele><time>2007-07-14T13:31:52Z</time></trkpt>
<trkpt lat="47.37495660" lon="7.31318240"><ele>574.525146</ele><time>2007-07-14T13:33:21Z</time></trkpt>
<trkpt lat="47.37373350" lon="7.30936290"><ele>587.021973</ele><time>2007-07-14T13:34:50Z</time></trkpt>
<trkpt lat="47.37300400" lon="7.30653050"><ele>586.541504</ele><time>2007-07-14T13:35:50Z</time></trkpt>
<trkpt lat="47.37270360" lon="7.30586530"><ele>587.502686</ele><time>2007-07-14T13:36:04Z</time></trkpt>
<trkpt lat="47.37225290" lon="7.30526450"><ele>587.021973</ele><time>2007-07-14T13:36:24Z</time></trkpt>
<trkpt lat="47.37190960" lon="7.30432030"><ele>594.712646</ele><time>2007-07-14T13:40:06Z</time></trkpt>
<trkpt lat="47.37120150" lon="7.30406280"><ele>596.635498</ele><time>2007-07-14T13:40:53Z</time></trkpt>
<trkpt lat="47.37083670" lon="7.30344060"><ele>598.077393</ele><time>2007-07-14T13:42:03Z</time></trkpt>
<trkpt lat="47.37040760" lon="7.30307580"><ele>601.441895</ele><time>2007-07-14T13:42:51Z</time></trkpt>
<trkpt lat="47.37030030" lon="7.30200290"><ele>600.480713</ele><time>2007-07-14T13:43:40Z</time></trkpt>
<trkpt lat="47.36997840" lon="7.30080130"><ele>602.403076</ele><time>2007-07-14T13:44:49Z</time></trkpt>
<trkpt lat="47.36942050" lon="7.30035070"><ele>600.961182</ele><time>2007-07-14T13:45:10Z</time></trkpt>
<trkpt lat="47.36776830" lon="7.29850530"><ele>599.519287</ele><time>2007-07-14T13:46:06Z</time></trkpt>
<trkpt lat="47.36753230" lon="7.29730370"><ele>594.232178</ele><time>2007-07-14T13:46:33Z</time></trkpt>
<trkpt lat="47.36770390" lon="7.29597330"><ele>591.828857</ele><time>2007-07-14T13:47:08Z</time></trkpt>
<trkpt lat="47.36896990" lon="7.29475020"><ele>590.867432</ele><time>2007-07-14T13:47:48Z</time></trkpt>
<trkpt lat="47.37066510" lon="7.29414940"><ele>607.209961</ele><time>2007-07-14T13:50:14Z</time></trkpt>
<trkpt lat="47.37098690" lon="7.29365590"><ele>608.171387</ele><time>2007-07-14T13:50:15Z</time></trkpt>
<trkpt lat="47.37128730" lon="7.29344130"><ele>597.115967</ele><time>2007-07-14T13:50:41Z</time></trkpt>
<trkpt lat="47.37160920" lon="7.29271170"><ele>597.115967</ele><time>2007-07-14T13:51:18Z</time></trkpt>
<trkpt lat="47.37315420" lon="7.29191780"><ele>598.077393</ele><time>2007-07-14T13:52:47Z</time></trkpt>
<trkpt lat="47.37321850" lon="7.29163890"><ele>598.077393</ele><time>2007-07-14T13:53:42Z</time></trkpt>
<trkpt lat="47.37332580" lon="7.29251860"><ele>598.077393</ele><time>2007-07-14T13:55:06Z</time></trkpt>
<trkpt lat="47.37401250" lon="7.29118820"><ele>598.077393</ele><time>2007-07-14T13:55:27Z</time></trkpt>
<trkpt lat="47.37459180" lon="7.29127410"><ele>598.077393</ele><time>2007-07-14T13:56:12Z</time></trkpt>
<trkpt lat="47.37497810" lon="7.29166030"><ele>604.806641</ele><time>2007-07-14T13:56:44Z</time></trkpt>
<trkpt lat="47.37570760" lon="7.29507210"><ele>639.894775</ele><time>2007-07-14T13:59:46Z</time></trkpt>
<trkpt lat="47.37583640" lon="7.29841950"><ele>644.701172</ele><time>2007-07-14T14:03:06Z</time></trkpt>
<trkpt lat="47.37617970" lon="7.29957820"><ele>644.701172</ele><time>2007-07-14T14:03:40Z</time></trkpt>
<trkpt lat="47.37673760" lon="7.30069400"><ele>645.662598</ele><time>2007-07-14T14:04:40Z</time></trkpt>
<trkpt lat="47.37658740" lon="7.30138060"><ele>645.662598</ele><time>2007-07-14T14:04:48Z</time></trkpt>
<trkpt lat="47.37667320" lon="7.30204580"><ele>659.601807</ele><time>2007-07-14T14:05:10Z</time></trkpt>
<trkpt lat="47.37703800" lon="7.30256080"><ele>717.761475</ele><time>2007-07-14T14:05:45Z</time></trkpt>
<trkpt lat="47.37776760" lon="7.30472800"><ele>727.855225</ele><time>2007-07-14T14:07:26Z</time></trkpt>
<trkpt lat="47.37869020" lon="7.30644460"><ele>744.197754</ele><time>2007-07-14T14:09:05Z</time></trkpt>
<trkpt lat="47.37903360" lon="7.30687380"><ele>748.523682</ele><time>2007-07-14T14:09:35Z</time></trkpt>
<trkpt lat="47.37920520" lon="7.30747460"><ele>751.888428</ele><time>2007-07-14T14:10:12Z</time></trkpt>
<trkpt lat="47.37984900" lon="7.30848310"><ele>768.711426</ele><time>2007-07-14T14:15:43Z</time></trkpt>
<trkpt lat="47.37989190" lon="7.30874060"><ele>769.672852</ele><time>2007-07-14T14:15:59Z</time></trkpt>
<trkpt lat="47.37961290" lon="7.30874060"><ele>766.308105</ele><time>2007-07-14T14:16:22Z</time></trkpt>
<trkpt lat="47.37862590" lon="7.30811830"><ele>783.131104</ele><time>2007-07-14T14:20:00Z</time></trkpt>
<trkpt lat="47.37774610" lon="7.30736730"><ele>776.882568</ele><time>2007-07-14T14:20:51Z</time></trkpt>
<trkpt lat="47.37684490" lon="7.30732440"><ele>780.728027</ele><time>2007-07-14T14:21:33Z</time></trkpt>
<trkpt lat="47.37720970" lon="7.30852600"><ele>779.285645</ele><time>2007-07-14T14:22:16Z</time></trkpt>
<trkpt lat="47.37804650" lon="7.30979200"><ele>778.805176</ele><time>2007-07-14T14:23:25Z</time></trkpt>
<trkpt lat="47.37946270" lon="7.31451270"><ele>780.247314</ele><time>2007-07-14T14:26:07Z</time></trkpt>
<trkpt lat="47.37982750" lon="7.31723790"><ele>785.053955</ele><time>2007-07-14T14:28:57Z</time></trkpt>
<trkpt lat="47.37969880" lon="7.31775280"><ele>805.722168</ele><time>2007-07-14T14:59:16Z</time></trkpt>
<trkpt lat="47.38006350" lon="7.31781720"><ele>806.202637</ele><time>2007-07-14T15:11:52Z</time></trkpt>
<trkpt lat="47.38072870" lon="7.31663700"><ele>808.605957</ele><time>2007-07-14T15:12:26Z</time></trkpt>
<trkpt lat="47.38126520" lon="7.31661560"><ele>809.567383</ele><time>2007-07-14T15:12:38Z</time></trkpt>
<trkpt lat="47.38165140" lon="7.31683020"><ele>809.567383</ele><time>2007-07-14T15:12:56Z</time></trkpt>
<trkpt lat="47.38184450" lon="7.31736660"><ele>808.605957</ele><time>2007-07-14T15:13:16Z</time></trkpt>
<trkpt lat="47.38158700" lon="7.31590750"><ele>819.180664</ele><time>2007-07-14T15:14:53Z</time></trkpt>
<trkpt lat="47.38085750" lon="7.31444840"><ele>836.484375</ele><time>2007-07-14T15:16:11Z</time></trkpt>
<trkpt lat="47.38087890" lon="7.31414790"><ele>841.290771</ele><time>2007-07-14T15:16:28Z</time></trkpt>
<trkpt lat="47.38132950" lon="7.31374030"><ele>842.73291</ele><time>2007-07-14T15:17:06Z</time></trkpt>
<trkpt lat="47.38171580" lon="7.31283900"><ele>845.616943</ele><time>2007-07-14T15:17:58Z</time></trkpt>
<trkpt lat="47.38220930" lon="7.30972770"><ele>841.290771</ele><time>2007-07-14T15:19:56Z</time></trkpt>
<trkpt lat="47.38184450" lon="7.30841880"><ele>843.694092</ele><time>2007-07-14T15:20:30Z</time></trkpt>
<trkpt lat="47.38188740" lon="7.30764630"><ele>848.981445</ele><time>2007-07-14T15:20:51Z</time></trkpt>
<trkpt lat="47.38167290" lon="7.30614420"><ele>864.843262</ele><time>2007-07-14T15:22:01Z</time></trkpt>
<trkpt lat="47.38175870" lon="7.30526450"><ele>872.052979</ele><time>2007-07-14T15:22:44Z</time></trkpt>
<trkpt lat="47.38152270" lon="7.30459930"><ele>900.412109</ele><time>2007-07-14T15:25:47Z</time></trkpt>
<trkpt lat="47.38126520" lon="7.30288270"><ele>900.412109</ele><time>2007-07-14T15:26:38Z</time></trkpt>
<trkpt lat="47.38072870" lon="7.30127330"><ele>897.047363</ele><time>2007-07-14T15:27:45Z</time></trkpt>
<trkpt lat="47.37909790" lon="7.29045870"><ele>890.798584</ele><time>2007-07-14T15:30:48Z</time></trkpt>
<trkpt lat="47.37931250" lon="7.28848460"><ele>890.318115</ele><time>2007-07-14T15:31:26Z</time></trkpt>
<trkpt lat="47.37952710" lon="7.28178980"><ele>879.262939</ele><time>2007-07-14T15:32:51Z</time></trkpt>
<trkpt lat="47.38006350" lon="7.27344270"><ele>886.953369</ele><time>2007-07-14T15:35:15Z</time></trkpt>
<trkpt lat="47.38027810" lon="7.27209090"><ele>888.395508</ele><time>2007-07-14T15:35:56Z</time></trkpt>
<trkpt lat="47.38160850" lon="7.27024560"><ele>881.185791</ele><time>2007-07-14T15:39:55Z</time></trkpt>
<trkpt lat="47.38242390" lon="7.26739170"><ele>878.782471</ele><time>2007-07-14T15:40:17Z</time></trkpt>
<trkpt lat="47.38250970" lon="7.26606130"><ele>875.41748</ele><time>2007-07-14T15:40:43Z</time></trkpt>
<trkpt lat="47.38240240" lon="7.26496700"><ele>874.937012</ele><time>2007-07-14T15:41:26Z</time></trkpt>
<trkpt lat="47.38259550" lon="7.26367950"><ele>882.146973</ele><time>2007-07-14T15:42:10Z</time></trkpt>
<trkpt lat="47.38270280" lon="7.25983860"><ele>892.72168</ele><time>2007-07-14T15:43:53Z</time></trkpt>
<trkpt lat="47.38298180" lon="7.25857260"><ele>897.528076</ele><time>2007-07-14T15:44:25Z</time></trkpt>
<trkpt lat="47.38366840" lon="7.25659850"><ele>897.528076</ele><time>2007-07-14T15:46:44Z</time></trkpt>
<trkpt lat="47.38471980" lon="7.25125550"><ele>910.025146</ele><time>2007-07-14T15:48:56Z</time></trkpt>
<trkpt lat="47.38502030" lon="7.24874500"><ele>908.102783</ele><time>2007-07-14T15:49:42Z</time></trkpt>
<trkpt lat="47.38474130" lon="7.24754330"><ele>912.90918</ele><time>2007-07-14T15:50:06Z</time></trkpt>
<trkpt lat="47.38585710" lon="7.24215750"><ele>928.290283</ele><time>2007-07-14T15:54:33Z</time></trkpt>
<trkpt lat="47.38570690" lon="7.24198580"><ele>928.290283</ele><time>2007-07-14T15:54:43Z</time></trkpt>
<trkpt lat="47.38566400" lon="7.24127770"><ele>932.135498</ele><time>2007-07-14T15:55:10Z</time></trkpt>
<trkpt lat="47.38463400" lon="7.23655700"><ele>940.306885</ele><time>2007-07-14T15:57:16Z</time></trkpt>
<trkpt lat="47.38392590" lon="7.23196510"><ele>938.384033</ele><time>2007-07-14T15:58:22Z</time></trkpt>
<trkpt lat="47.38373280" lon="7.22977640"><ele>936.941895</ele><time>2007-07-14T15:58:49Z</time></trkpt>
<trkpt lat="47.38373280" lon="7.22741600"><ele>930.693604</ele><time>2007-07-14T15:59:19Z</time></trkpt>
<trkpt lat="47.38426920" lon="7.22664360"><ele>913.389893</ele><time>2007-07-14T15:59:33Z</time></trkpt>
<trkpt lat="47.38504170" lon="7.22085000"><ele>874.937012</ele><time>2007-07-14T16:00:40Z</time></trkpt>
<trkpt lat="47.38508460" lon="7.21997020"><ele>870.130371</ele><time>2007-07-14T16:00:54Z</time></trkpt>
<trkpt lat="47.38493440" lon="7.21947670"><ele>863.881836</ele><time>2007-07-14T16:03:07Z</time></trkpt>
<trkpt lat="47.38502030" lon="7.21975560"><ele>864.362549</ele><time>2007-07-14T16:05:08Z</time></trkpt>
<trkpt lat="47.38484860" lon="7.22063540"><ele>862.920654</ele><time>2007-07-14T16:05:37Z</time></trkpt>
<trkpt lat="47.38291740" lon="7.22838160"><ele>852.82666</ele><time>2007-07-14T16:06:58Z</time></trkpt>
<trkpt lat="47.38143680" lon="7.23655700"><ele>838.406982</ele><time>2007-07-14T16:07:46Z</time></trkpt>
<trkpt lat="47.38094330" lon="7.24097730"><ele>820.141846</ele><time>2007-07-14T16:08:17Z</time></trkpt>
<trkpt lat="47.38083600" lon="7.24451780"><ele>802.838135</ele><time>2007-07-14T16:08:43Z</time></trkpt>
<trkpt lat="47.38038540" lon="7.24644900"><ele>797.551025</ele><time>2007-07-14T16:08:56Z</time></trkpt>
<trkpt lat="47.37918380" lon="7.25024700"><ele>790.821533</ele><time>2007-07-14T16:09:21Z</time></trkpt>
<trkpt lat="47.37860440" lon="7.25277900"><ele>783.131104</ele><time>2007-07-14T16:09:36Z</time></trkpt>
<trkpt lat="47.37823960" lon="7.25320820"><ele>779.285645</ele><time>2007-07-14T16:09:40Z</time></trkpt>
<trkpt lat="47.37770320" lon="7.25344420"><ele>774.479248</ele><time>2007-07-14T16:09:50Z</time></trkpt>
<trkpt lat="47.37695220" lon="7.25483890"><ele>772.556641</ele><time>2007-07-14T16:10:30Z</time></trkpt>
<trkpt lat="47.37605090" lon="7.25440980"><ele>749.004395</ele><time>2007-07-14T16:11:04Z</time></trkpt>
<trkpt lat="47.37587930" lon="7.25393770"><ele>741.313721</ele><time>2007-07-14T16:11:20Z</time></trkpt>
<trkpt lat="47.37577200" lon="7.25256440"><ele>736.507324</ele><time>2007-07-14T16:11:54Z</time></trkpt>
<trkpt lat="47.37654450" lon="7.24737170"><ele>728.81665</ele><time>2007-07-14T16:15:42Z</time></trkpt>
<trkpt lat="47.37635140" lon="7.24702840"><ele>730.739258</ele><time>2007-07-14T16:15:52Z</time></trkpt>
<trkpt lat="47.37575050" lon="7.24722150"><ele>728.81665</ele><time>2007-07-14T16:16:11Z</time></trkpt>
<trkpt lat="47.37628700" lon="7.24717860"><ele>729.297119</ele><time>2007-07-14T16:17:32Z</time></trkpt>
<trkpt lat="47.37652300" lon="7.24737170"><ele>730.258545</ele><time>2007-07-14T16:17:45Z</time></trkpt>
<trkpt lat="47.37615820" lon="7.24732880"><ele>736.507324</ele><time>2007-07-14T16:19:00Z</time></trkpt>
<trkpt lat="47.37594370" lon="7.24842310"><ele>742.275146</ele><time>2007-07-14T16:20:57Z</time></trkpt>
<trkpt lat="47.37416270" lon="7.25116970"><ele>744.197754</ele><time>2007-07-14T16:24:54Z</time></trkpt>
<trkpt lat="47.37429140" lon="7.25144860"><ele>744.197754</ele><time>2007-07-14T16:25:00Z</time></trkpt>
<trkpt lat="47.37454890" lon="7.25147010"><ele>743.717041</ele><time>2007-07-14T16:25:04Z</time></trkpt>
<trkpt lat="47.37422700" lon="7.25192070"><ele>743.717041</ele><time>2007-07-14T16:25:15Z</time></trkpt>
<trkpt lat="47.37405540" lon="7.25265030"><ele>750.927002</ele><time>2007-07-14T16:25:38Z</time></trkpt>
<trkpt lat="47.37293960" lon="7.25451710"><ele>748.523682</ele><time>2007-07-14T16:26:25Z</time></trkpt>
<trkpt lat="47.37111570" lon="7.25983860"><ele>752.849609</ele><time>2007-07-14T16:27:30Z</time></trkpt>
<trkpt lat="47.37122300" lon="7.25973130"><ele>743.236328</ele><time>2007-07-14T16:27:42Z</time></trkpt>
<trkpt lat="47.37130880" lon="7.26033210"><ele>735.545898</ele><time>2007-07-14T16:29:10Z</time></trkpt>
<trkpt lat="47.37160920" lon="7.26078270"><ele>735.545898</ele><time>2007-07-14T16:29:23Z</time></trkpt>
<trkpt lat="47.37175940" lon="7.26144790"><ele>735.545898</ele><time>2007-07-14T16:29:38Z</time></trkpt>
<trkpt lat="47.37163070" lon="7.26305720"><ele>734.104004</ele><time>2007-07-14T16:30:06Z</time></trkpt>
<trkpt lat="47.37100840" lon="7.26370100"><ele>734.104004</ele><time>2007-07-14T16:30:28Z</time></trkpt>
<trkpt lat="47.37055780" lon="7.26548190"><ele>734.104004</ele><time>2007-07-14T16:30:55Z</time></trkpt>
<trkpt lat="47.36860510" lon="7.26807830"><ele>734.104004</ele><time>2007-07-14T16:31:21Z</time></trkpt>
<trkpt lat="47.37027880" lon="7.26863620"><ele>734.104004</ele><time>2007-07-14T16:31:23Z</time></trkpt>
<trkpt lat="47.36965660" lon="7.27007390"><ele>734.104004</ele><time>2007-07-14T16:31:37Z</time></trkpt>
<trkpt lat="47.36899140" lon="7.27239130"><ele>724.01001</ele><time>2007-07-14T16:32:02Z</time></trkpt>
<trkpt lat="47.36935620" lon="7.27101800"><ele>697.57373</ele><time>2007-07-14T16:32:05Z</time></trkpt>
<trkpt lat="47.36959220" lon="7.27142570"><ele>702.380371</ele><time>2007-07-14T16:32:13Z</time></trkpt>
<trkpt lat="47.36877680" lon="7.27597480"><ele>695.17041</ele><time>2007-07-14T16:33:38Z</time></trkpt>
<trkpt lat="47.36924890" lon="7.28103880"><ele>695.17041</ele><time>2007-07-14T16:33:56Z</time></trkpt>
<trkpt lat="47.36899140" lon="7.28093150"><ele>646.624023</ele><time>2007-07-14T16:33:59Z</time></trkpt>
<trkpt lat="47.36890550" lon="7.28118900"><ele>644.220703</ele><time>2007-07-14T16:34:02Z</time></trkpt>
<trkpt lat="47.36939910" lon="7.28198290"><ele>639.894775</ele><time>2007-07-14T16:34:12Z</time></trkpt>
<trkpt lat="47.36952780" lon="7.28251930"><ele>626.916992</ele><time>2007-07-14T16:35:32Z</time></trkpt>
<trkpt lat="47.36931320" lon="7.28258370"><ele>637.491455</ele><time>2007-07-14T16:37:29Z</time></trkpt>
<trkpt lat="47.36993550" lon="7.28352790"><ele>643.259277</ele><time>2007-07-14T16:38:07Z</time></trkpt>
<trkpt lat="47.37118010" lon="7.29170320"><ele>643.259277</ele><time>2007-07-14T16:40:45Z</time></trkpt>
<trkpt lat="47.37184520" lon="7.29262590"><ele>643.259277</ele><time>2007-07-14T16:40:50Z</time></trkpt>
<trkpt lat="47.37049340" lon="7.29256150"><ele>643.259277</ele><time>2007-07-14T16:41:14Z</time></trkpt>
<trkpt lat="47.37083670" lon="7.29387040"><ele>601.922607</ele><time>2007-07-14T16:41:17Z</time></trkpt>
<trkpt lat="47.36999990" lon="7.29359150"><ele>600.961182</ele><time>2007-07-14T16:41:26Z</time></trkpt>
<trkpt lat="47.36984970" lon="7.29423520"><ele>600.961182</ele><time>2007-07-14T16:41:31Z</time></trkpt>
<trkpt lat="47.36961360" lon="7.29444980"><ele>590.867432</ele><time>2007-07-14T16:41:36Z</time></trkpt>
<trkpt lat="47.36879830" lon="7.29462150"><ele>587.021973</ele><time>2007-07-14T16:42:03Z</time></trkpt>
<trkpt lat="47.36802580" lon="7.29509350"><ele>585.099609</ele><time>2007-07-14T16:42:37Z</time></trkpt>
<trkpt lat="47.36748930" lon="7.29638100"><ele>584.618896</ele><time>2007-07-14T16:43:04Z</time></trkpt>
<trkpt lat="47.36725330" lon="7.29753970"><ele>583.657471</ele><time>2007-07-14T16:43:24Z</time></trkpt>
<trkpt lat="47.36731770" lon="7.29818340"><ele>583.176758</ele><time>2007-07-14T16:43:37Z</time></trkpt>
<trkpt lat="47.36791850" lon="7.30030780"><ele>578.370361</ele><time>2007-07-14T16:44:13Z</time></trkpt>
<trkpt lat="47.36821890" lon="7.30301140"><ele>551.453369</ele><time>2007-07-14T16:45:06Z</time></trkpt>
<trkpt lat="47.36912010" lon="7.30479240"><ele>546.16626</ele><time>2007-07-14T16:46:26Z</time></trkpt>
<trkpt lat="47.36922740" lon="7.30532880"><ele>542.801514</ele><time>2007-07-14T16:46:34Z</time></trkpt>
<trkpt lat="47.36851930" lon="7.30884790"><ele>534.630371</ele><time>2007-07-14T16:47:31Z</time></trkpt>
<trkpt lat="47.36933470" lon="7.31137990"><ele>547.127441</ele><time>2007-07-14T16:49:29Z</time></trkpt>
<trkpt lat="47.36952780" lon="7.31614350"><ele>535.110962</ele><time>2007-07-14T16:50:46Z</time></trkpt>
<trkpt lat="47.36972090" lon="7.31755970"><ele>533.668945</ele><time>2007-07-14T16:50:55Z</time></trkpt>
<trkpt lat="47.36993550" lon="7.31826780"><ele>533.188354</ele><time>2007-07-14T16:51:03Z</time></trkpt>
<trkpt lat="47.37023590" lon="7.31871840"><ele>532.707764</ele><time>2007-07-14T16:51:09Z</time></trkpt>
<trkpt lat="47.37203840" lon="7.31981280"><ele>531.265747</ele><time>2007-07-14T16:51:31Z</time></trkpt>
<trkpt lat="47.37302540" lon="7.32095000"><ele>530.304443</ele><time>2007-07-14T16:51:49Z</time></trkpt>
<trkpt lat="47.37278940" lon="7.32204440"><ele>525.017212</ele><time>2007-07-14T16:52:02Z</time></trkpt>
<trkpt lat="47.37251040" lon="7.32562780"><ele>516.365234</ele><time>2007-07-14T16:52:52Z</time></trkpt>
<trkpt lat="47.37216710" lon="7.32670070"><ele>513.000732</ele><time>2007-07-14T16:53:09Z</time></trkpt>
<trkpt lat="47.37090110" lon="7.32770920"><ele>506.271484</ele><time>2007-07-14T16:53:45Z</time></trkpt>
<trkpt lat="47.36914160" lon="7.33049870"><ele>492.812988</ele><time>2007-07-14T16:54:20Z</time></trkpt>
<trkpt lat="47.36830470" lon="7.33144280"><ele>485.122437</ele><time>2007-07-14T16:54:31Z</time></trkpt>
<trkpt lat="47.36789700" lon="7.33236550"><ele>481.277222</ele><time>2007-07-14T16:54:42Z</time></trkpt>
<trkpt lat="47.36736060" lon="7.33266590"><ele>476.951294</ele><time>2007-07-14T16:54:52Z</time></trkpt>
<trkpt lat="47.36673830" lon="7.33378170"><ele>473.58667</ele><time>2007-07-14T16:55:11Z</time></trkpt>
<trkpt lat="47.36639500" lon="7.33406070"><ele>473.58667</ele><time>2007-07-14T16:55:20Z</time></trkpt>
<trkpt lat="47.36566540" lon="7.33571290"><ele>465.896118</ele><time>2007-07-14T16:55:46Z</time></trkpt>
<trkpt lat="47.36523630" lon="7.33747240"><ele>454.84082</ele><time>2007-07-14T16:56:05Z</time></trkpt>
<trkpt lat="47.36549380" lon="7.33938220"><ele>450.515015</ele><time>2007-07-14T16:56:22Z</time></trkpt>
<trkpt lat="47.36536500" lon="7.34019760"><ele>455.321533</ele><time>2007-07-14T16:57:03Z</time></trkpt>
<trkpt lat="47.36476420" lon="7.34122750"><ele>449.072998</ele><time>2007-07-14T16:57:26Z</time></trkpt>
<trkpt lat="47.36424920" lon="7.34165670"><ele>448.592407</ele><time>2007-07-14T16:57:37Z</time></trkpt>
<trkpt lat="47.36461400" lon="7.34257940"><ele>445.708374</ele><time>2007-07-14T16:58:09Z</time></trkpt>
<trkpt lat="47.36433510" lon="7.34262230"><ele>442.824463</ele><time>2007-07-14T16:58:44Z</time></trkpt>
<trkpt lat="47.36452820" lon="7.34247210"><ele>437.537109</ele><time>2007-07-14T16:59:45Z</time></trkpt>
<trkpt lat="47.36465690" lon="7.34260080"><ele>444.266479</ele><time>2007-07-14T17:00:08Z</time></trkpt>
<trkpt lat="47.36536500" lon="7.34408140"><ele>443.305054</ele><time>2007-07-14T17:00:46Z</time></trkpt>
<trkpt lat="47.36485000" lon="7.34517570"><ele>435.133911</ele><time>2007-07-14T17:01:15Z</time></trkpt>
<trkpt lat="47.36371280" lon="7.34558340"><ele>434.172607</ele><time>2007-07-14T17:01:34Z</time></trkpt>
<trkpt lat="47.36259700" lon="7.34661340"><ele>430.807983</ele><time>2007-07-14T17:01:57Z</time></trkpt>
<trkpt lat="47.36279010" lon="7.34787940"><ele>426.962769</ele><time>2007-07-14T17:02:18Z</time></trkpt>
<trkpt lat="47.36270430" lon="7.34955310"><ele>426.962769</ele><time>2007-07-14T17:02:45Z</time></trkpt>
<trkpt lat="47.36263990" lon="7.34976770"><ele>426.001343</ele><time>2007-07-14T17:02:53Z</time></trkpt>
<trkpt lat="47.36233950" lon="7.34998230"><ele>423.117432</ele><time>2007-07-14T17:03:31Z</time></trkpt>
<trkpt lat="47.36208200" lon="7.34933850"><ele>425.040161</ele><time>2007-07-14T17:04:00Z</time></trkpt>
</trkseg></trk></gpx>